New Philadelphia, OH (44663)

6:11 AM EDT on July 30, 2016 (GMT -0400)
Steele Hill | | Change Station

Elev 942 ft 40.48 °N, 81.48 °W | Updated 6 seconds ago

Partly Cloudy
Partly Cloudy
68.5 °F
Feels Like 68.5 °F
N
0.0
Wind Variable Wind from SW
Gusts 0.0 mph

Today
High -- | Low -- °F
--% Chance of Precip.
Yesterday
High -- | Low -- °F
Precip. -- in
Pressure 29.90 in
Visibility 5.0 miles
Clouds Few 7500 ft
Few 10000 ft
Dew Point 68 °F
Humidity 97%
Rainfall 0.20 in
Snow Depth Not available.
6:21 AM 8:42 PM
Waning Crescent, 14% visible
METAR KPHD 300953Z AUTO 12003KT 5SM BR FEW075 FEW100 22/20 A2992 RMK AO2 SLP125 T02170200
Pressure 29.90 in
Visibility 5.0 miles
Clouds Few 7500 ft
Few 10000 ft
Dew Point 68 °F
Humidity 97%
Rainfall 0.20 in
Snow Depth Not available.
6:21 AM 8:42 PM
Waning Crescent, 14% visible
METAR KPHD 300953Z AUTO 12003KT 5SM BR FEW075 FEW100 22/20 A2992 RMK AO2 SLP125 T02170200

10-Day Weather Forecast

Almanac

Astronomy

Jul. 30, 2016 Rise Set
Actual Time
Civil Twilight
Nautical Twilight
Astronomical Twilight
Moon
Length of Visible Light
Length of Day
Tomorrow will be .
, % of the Moon is Illuminated

Today's Extremes

State Highs State Lows

Community

WunderPhotos

Upload Photos

1,928,528 photos uploaded!

WunderBlog® & News

Nearby

Air Quality

  Air Quality AQ Index Pollutant
Not available.

Snow Depth

Station Depth Elevation

Earthquake Activity

City Distance Mag. Time & Date
Minimum magnitude displayed is 2.5.

Coastal Water Temperatures

Place Temperature

Stations

Nearby Weather Stations

Station Location Temp. Windchill Dew Point Humidity Wind Precip. Elev Updated Type
                   

Watches & Warnings

There are currently no watches in effect.